Time,TemperatureF,DewpointF,PressureIn,WindDirection,WindDirectionDegrees,WindSpeedMPH,WindSpeedGustMPH,Humidity,HourlyPrecipIn,Conditions,Clouds,dailyrainin,SoftwareType,DateUTC
2013-03-14 00:00:00,39.1,31.0,29.87,West,270,9.5,22.1,72,8.20,,---,0.00,VWS V12.08,2013-03-14 04:00:00,
2013-03-14 00:05:00,38.9,30.9,29.86,West,269,6.2,22.1,73,8.20,,---,0.00,VWS V12.08,2013-03-14 04:05:00,
2013-03-14 00:10:00,38.8,32.6,30.28,North,4,0.0,14.5,78,0.00,,---,0.00,VWS V12.08,2013-03-14 04:10:00,
2013-03-14 00:15:00,37.1,28.4,30.05,West,260,1.3,13.2,70,0.00,,---,0.00,VWS V12.08,2013-03-14 04:15:00,
2013-03-14 00:20:00,40.8,35.9,29.94,WSW,242,3.4,9.1,83,0.00,,---,0.00,VWS V12.08,2013-03-14 04:20:00,
2013-03-14 00:25:00,38.5,31.1,29.91,WNW,298,10.4,25.0,74,0.62,,---,0.40,VWS V12.08,2013-03-14 04:25:00,
2013-03-14 00:30:00,33.6,26.4,30.16,West,280,0.0,19.6,75,0.00,,---,0.00,VWS V12.08,2013-03-14 04:30:00,
2013-03-14 00:35:00,43.0,38.3,29.75,SW,236,4.7,12.3,83,0.00,,---,0.00,VWS V12.08,2013-03-14 04:35:00,
2013-03-14 00:40:00,38.3,31.3,29.86,WSW,239,7.1,22.1,76,8.20,,---,0.00,VWS V12.08,2013-03-14 04:40:00,
2013-03-14 00:45:00,44.8,38.8,29.74,West,267,7.5,17.2,79,0.00,,---,0.00,VWS V12.08,2013-03-14 04:45:00,
2013-03-14 00:50:00,45.7,38.4,29.73,West,277,13.4,17.9,75,0.00,,---,0.00,VWS V12.08,2013-03-14 04:50:00,
2013-03-14 00:55:00,46.6,38.0,29.71,West,276,17.2,18.0,72,0.00,,---,0.00,VWS V12.08,2013-03-14 04:55:00,
2013-03-14 01:00:00,46.6,38.0,29.71,West,276,17.2,18.0,72,0.00,,---,0.00,VWS V12.08,2013-03-14 05:00:00,
2013-03-14 01:05:00,37.8,31.3,29.86,SW,224,6.7,22.1,77,8.20,,---,0.00,VWS V12.08,2013-03-14 05:05:00,
2013-03-14 01:10:00,46.6,38.0,29.71,West,276,17.2,18.0,72,0.00,,---,0.00,VWS V12.08,2013-03-14 05:10:00,
2013-03-14 01:15:00,37.8,31.3,29.86,West,263,7.2,22.1,77,8.20,,---,0.00,VWS V12.08,2013-03-14 05:15:00,
2013-03-14 01:20:00,37.8,31.2,29.86,WNW,290,8.9,22.1,77,8.20,,---,0.00,VWS V12.08,2013-03-14 05:20:00,
2013-03-14 01:25:00,46.6,38.0,29.71,West,276,17.2,18.0,72,0.00,,---,0.00,VWS V12.08,2013-03-14 05:25:00,
2013-03-14 01:30:00,37.8,30.6,29.86,WSW,248,9.9,22.1,75,8.20,,---,0.00,VWS V12.08,2013-03-14 05:30:00,
2013-03-14 01:35:00,37.7,30.1,29.86,WNW,288,8.4,22.1,74,8.20,,---,0.00,VWS V12.08,2013-03-14 05:35:00,
2013-03-14 01:40:00,37.8,29.2,29.86,West,266,10.3,22.1,71,8.20,,---,0.00,VWS V12.08,2013-03-14 05:40:00,
2013-03-14 01:45:00,38.0,28.9,29.86,West,266,8.6,22.1,69,8.20,,---,0.00,VWS V12.08,2013-03-14 05:45:00,
2013-03-14 01:50:00,37.8,28.5,29.87,SSW,211,6.3,22.1,69,8.20,,---,0.00,VWS V12.08,2013-03-14 05:50:00,
2013-03-14 01:55:00,37.6,28.8,29.87,WSW,243,11.9,22.1,70,8.20,,---,0.00,VWS V12.08,2013-03-14 05:55:00,
2013-03-14 02:00:00,37.4,28.4,29.87,WSW,242,7.1,22.1,70,8.20,,---,0.00,VWS V12.08,2013-03-14 06:00:00,
2013-03-14 02:05:00,37.2,28.1,29.87,West,270,5.0,22.1,69,8.20,,---,0.00,VWS V12.08,2013-03-14 06:05:00,
2013-03-14 02:10:00,36.9,27.2,29.87,West,262,9.4,22.1,68,8.20,,---,0.00,VWS V12.08,2013-03-14 06:10:00,
2013-03-14 02:15:00,37.0,27.2,29.87,SW,221,8.1,22.1,67,8.20,,---,0.00,VWS V12.08,2013-03-14 06:15:00,
2013-03-14 02:20:00,36.8,28.0,29.88,West,271,8.3,22.1,70,8.20,,---,0.00,VWS V12.08,2013-03-14 06:20:00,
2013-03-14 02:25:00,36.7,28.7,29.88,West,269,2.9,22.1,72,8.20,,---,0.00,VWS V12.08,2013-03-14 06:25:00,
2013-03-14 02:30:00,36.6,29.0,29.88,NW,304,8.5,22.1,74,8.20,,---,0.00,VWS V12.08,2013-03-14 06:30:00,
2013-03-14 02:35:00,36.6,29.1,29.88,West,273,5.3,22.1,74,8.20,,---,0.00,VWS V12.08,2013-03-14 06:35:00,
2013-03-14 02:40:00,36.6,28.5,29.87,WSW,255,12.7,22.1,72,8.20,,---,0.00,VWS V12.08,2013-03-14 06:40:00,
2013-03-14 02:45:00,36.4,27.4,29.88,WNW,287,7.6,22.1,70,8.20,,---,0.00,VWS V12.08,2013-03-14 06:45:00,
2013-03-14 02:50:00,36.5,27.4,29.88,WNW,294,10.9,22.1,69,8.20,,---,0.00,VWS V12.08,2013-03-14 06:50:00,
2013-03-14 02:55:00,36.3,26.9,29.87,SW,228,4.7,22.1,68,8.20,,---,0.00,VWS V12.08,2013-03-14 06:55:00,
2013-03-14 03:00:00,36.2,26.5,29.88,WSW,248,12.3,22.1,68,8.20,,---,0.00,VWS V12.08,2013-03-14 07:00:00,
2013-03-14 03:05:00,36.2,26.6,29.87,West,270,5.8,22.1,68,8.20,,---,0.00,VWS V12.08,2013-03-14 07:05:00,
2013-03-14 03:10:00,36.1,26.2,29.87,WNW,285,15.3,22.1,67,8.20,,---,0.00,VWS V12.08,2013-03-14 07:10:00,
2013-03-14 03:15:00,36.0,25.8,29.87,West,277,8.5,22.1,66,8.20,,---,0.00,VWS V12.08,2013-03-14 07:15:00,
2013-03-14 03:20:00,35.8,25.7,29.87,West,264,14.4,22.1,66,8.20,,---,0.00,VWS V12.08,2013-03-14 07:20:00,
2013-03-14 03:25:00,35.7,25.5,29.87,SW,222,6.3,22.1,66,8.20,,---,0.00,VWS V12.08,2013-03-14 07:25:00,
2013-03-14 03:30:00,35.8,25.6,29.87,West,260,17.5,22.1,66,8.20,,---,0.00,VWS V12.08,2013-03-14 07:30:00,
2013-03-14 03:35:00,35.5,25.3,29.87,WSW,255,7.1,22.1,66,8.20,,---,0.00,VWS V12.08,2013-03-14 07:35:00,
2013-03-14 03:40:00,35.8,25.8,29.87,WNW,300,6.2,22.1,67,8.20,,---,0.00,VWS V12.08,2013-03-14 07:40:00,
2013-03-14 03:45:00,35.8,25.9,29.87,West,278,10.0,22.1,67,8.20,,---,0.00,VWS V12.08,2013-03-14 07:45:00,
2013-03-14 03:50:00,35.2,25.5,29.87,WSW,239,13.0,22.1,68,8.20,,---,0.00,VWS V12.08,2013-03-14 07:50:00,
2013-03-14 03:55:00,35.1,25.6,29.87,NW,325,12.4,22.1,68,8.20,,---,0.00,VWS V12.08,2013-03-14 07:55:00,
2013-03-14 04:00:00,35.0,25.8,29.87,NW,305,11.2,22.1,69,8.20,,---,0.00,VWS V12.08,2013-03-14 08:00:00,
2013-03-14 04:04:00,35.1,25.8,29.87,West,262,6.2,22.1,68,8.20,,---,0.00,VWS V12.08,2013-03-14 08:04:00,
2013-03-14 04:09:00,34.9,25.1,29.87,West,270,6.9,22.1,67,8.20,,---,0.00,VWS V12.08,2013-03-14 08:09:00,
2013-03-14 04:14:00,34.6,24.0,29.87,WNW,291,13.5,22.1,65,8.20,,---,0.00,VWS V12.08,2013-03-14 08:14:00,
2013-03-14 04:19:00,34.5,21.7,29.88,WNW,283,16.6,22.1,59,8.20,,---,0.00,VWS V12.08,2013-03-14 08:19:00,
2013-03-14 04:24:00,34.3,21.5,29.88,WNW,302,8.2,22.1,59,8.20,,---,0.00,VWS V12.08,2013-03-14 08:24:00,
2013-03-14 04:29:00,34.2,20.9,29.88,WNW,285,14.2,22.7,58,8.20,,---,0.00,VWS V12.08,2013-03-14 08:29:00,
2013-03-14 04:34:00,33.6,20.3,29.89,WSW,255,16.5,22.7,58,8.20,,---,0.00,VWS V12.08,2013-03-14 08:34:00,
2013-03-14 04:39:00,33.4,20.5,29.89,West,278,22.0,22.7,59,8.20,,---,0.00,VWS V12.08,2013-03-14 08:39:00,
2013-03-14 04:44:00,45.4,40.4,30.17,ENE,68,0.0,0.0,82,0.00,,---,0.00,VWS V12.08,2013-03-14 08:44:00,
2013-03-14 04:49:00,32.8,20.1,29.89,WNW,294,6.5,22.7,59,8.20,,---,0.00,VWS V12.08,2013-03-14 08:49:00,
2013-03-14 04:54:00,32.2,19.8,29.89,WSW,256,8.9,22.7,60,8.20,,---,0.00,VWS V12.08,2013-03-14 08:54:00,
2013-03-14 04:59:00,32.4,19.8,29.89,WNW,283,8.2,22.7,59,8.20,,---,0.00,VWS V12.08,2013-03-14 08:59:00,
2013-03-14 05:04:00,32.2,19.4,29.89,West,278,9.1,22.7,59,8.20,,---,0.00,VWS V12.08,2013-03-14 09:04:00,
2013-03-14 05:09:00,32.0,19.2,29.89,West,278,15.8,22.7,59,8.20,,---,0.00,VWS V12.08,2013-03-14 09:09:00,
2013-03-14 05:14:00,35.5,27.5,30.22,North,359,5.6,17.0,72,0.01,,---,0.01,VWS V12.08,2013-03-14 09:14:00,
2013-03-14 05:19:00,31.7,19.3,29.89,WNW,298,8.5,22.7,60,8.20,,---,0.00,VWS V12.08,2013-03-14 09:19:00,
2013-03-14 05:24:00,31.9,19.6,29.89,West,267,3.3,22.7,60,8.20,,---,0.00,VWS V12.08,2013-03-14 09:24:00,
2013-03-14 05:29:00,31.7,19.7,29.89,WNW,297,0.0,22.7,61,8.20,,---,0.00,VWS V12.08,2013-03-14 09:29:00,
2013-03-14 05:34:00,31.5,19.7,29.89,WSW,249,4.3,22.7,61,8.20,,---,0.00,VWS V12.08,2013-03-14 09:34:00,
2013-03-14 05:39:00,31.6,19.6,29.89,WNW,283,5.6,22.7,61,8.20,,---,0.00,VWS V12.08,2013-03-14 09:39:00,
2013-03-14 05:44:00,31.7,19.7,29.89,WSW,246,2.9,22.7,61,8.20,,---,0.00,VWS V12.08,2013-03-14 09:44:00,
2013-03-14 05:49:00,31.5,19.6,29.89,WSW,243,2.7,22.7,61,8.20,,---,0.00,VWS V12.08,2013-03-14 09:49:00,
2013-03-14 05:54:00,31.5,19.6,29.89,West,270,5.6,22.7,61,8.20,,---,0.00,VWS V12.08,2013-03-14 09:54:00,
2013-03-14 05:59:00,31.4,19.5,29.89,WSW,245,7.6,22.7,61,8.20,,---,0.00,VWS V12.08,2013-03-14 09:59:00,
2013-03-14 06:04:00,31.5,19.5,29.89,WSW,239,5.8,22.7,61,8.20,,---,0.00,VWS V12.08,2013-03-14 10:04:00,
2013-03-14 13:59:00,39.1,21.3,29.88,WNW,288,14.8,14.8,48,8.20,,---,0.00,VWS V12.08,2013-03-14 17:59:00,
2013-03-14 14:04:00,46.6,38.0,29.71,West,276,17.2,18.0,72,0.00,,---,0.00,VWS V12.08,2013-03-14 18:04:00,
2013-03-14 14:09:00,39.2,20.9,29.88,WNW,294,13.7,0.0,47,8.20,,---,0.00,VWS V12.08,2013-03-14 18:09:00,
2013-03-14 14:14:00,45.8,38.0,29.72,NW,326,12.3,22.6,74,0.00,,---,0.00,VWS V12.08,2013-03-14 18:14:00,
2013-03-14 14:19:00,46.6,38.0,29.71,West,276,17.2,18.0,72,0.00,,---,0.00,VWS V12.08,2013-03-14 18:19:00,
2013-03-14 14:24:00,39.5,20.4,29.87,West,280,16.1,29.1,46,8.20,,---,0.00,VWS V12.08,2013-03-14 18:24:00,
2013-03-14 14:29:00,46.6,38.0,29.71,West,276,17.2,18.0,72,0.00,,---,0.00,VWS V12.08,2013-03-14 18:29:00,
2013-03-14 14:34:00,46.6,38.0,29.71,West,276,17.2,18.0,72,0.00,,---,0.00,VWS V12.08,2013-03-14 18:34:00,
2013-03-14 14:39:00,40.0,20.6,29.87,WSW,239,14.5,29.1,46,8.20,,---,0.00,VWS V12.08,2013-03-14 18:39:00,
2013-03-14 14:44:00,40.0,20.4,29.86,West,274,19.6,29.1,45,8.20,,---,0.00,VWS V12.08,2013-03-14 18:44:00,
2013-03-14 14:49:00,37.7,35.5,29.32,West,280,6.8,13.3,92,1.03,,---,1.03,VWS V12.08,2013-03-14 18:49:00,
2013-03-14 14:54:00,40.3,20.4,29.86,WSW,249,15.8,29.1,44,8.20,,---,0.00,VWS V12.08,2013-03-14 18:54:00,
2013-03-14 14:59:00,40.8,19.9,29.86,WSW,248,13.5,29.1,43,8.20,,---,0.00,VWS V12.08,2013-03-14 18:59:00,
2013-03-14 15:04:00,40.5,19.3,29.85,WSW,246,9.5,29.1,42,8.20,,---,0.00,VWS V12.08,2013-03-14 19:04:00,
2013-03-14 15:09:00,40.4,19.7,29.85,West,274,14.2,29.1,43,8.20,,---,0.00,VWS V12.08,2013-03-14 19:09:00,
2013-03-14 15:14:00,40.7,19.9,29.85,WNW,300,14.7,29.1,43,8.20,,---,0.00,VWS V12.08,2013-03-14 19:14:00,
2013-03-14 15:19:00,32.3,30.8,30.23,NNE,13,4.3,6.3,94,0.06,,---,0.06,VWS V12.08,2013-03-14 19:19:00,
2013-03-14 15:24:00,39.6,39.6,29.46,North,8,15.7,30.4,100,1.42,,---,1.42,VWS V12.08,2013-03-14 19:24:00,
2013-03-14 15:29:00,41.1,19.4,29.84,WNW,291,9.9,29.1,41,8.20,,---,0.00,VWS V12.08,2013-03-14 19:29:00,
2013-03-14 15:34:00,37.6,35.2,29.32,South,180,0.0,45.1,91,1.13,,---,1.03,VWS V12.08,2013-03-14 19:34:00,
2013-03-14 15:39:00,46.6,38.0,29.71,West,276,17.2,18.0,72,0.00,,---,0.00,VWS V12.08,2013-03-14 19:39:00,
2013-03-14 15:44:00,41.2,18.3,29.84,WNW,302,13.9,29.1,39,8.20,,---,0.00,VWS V12.08,2013-03-14 19:44:00,
2013-03-14 15:49:00,46.6,38.0,29.71,West,276,17.2,18.0,72,0.00,,---,0.00,VWS V12.08,2013-03-14 19:49:00,
2013-03-14 15:54:00,41.2,18.1,29.84,WNW,290,10.7,29.1,39,8.20,,---,0.00,VWS V12.08,2013-03-14 19:54:00,
2013-03-14 15:59:00,41.4,18.0,29.84,WSW,253,10.0,29.1,38,8.20,,---,0.00,VWS V12.08,2013-03-14 19:59:00,
2013-03-14 16:04:00,41.5,17.4,29.84,WSW,249,20.8,29.1,37,8.20,,---,0.00,VWS V12.08,2013-03-14 20:04:00,
2013-03-14 16:09:00,35.2,35.2,29.90,North,350,3.3,8.0,100,0.12,,---,0.12,VWS V12.08,2013-03-14 20:09:00,
2013-03-14 16:14:00,29.3,28.0,30.01,WNW,291,0.0,0.0,95,0.00,,---,0.00,VWS V12.08,2013-03-14 20:14:00,
2013-03-14 16:19:00,33.0,31.3,30.22,NNE,30,0.0,20.3,94,0.18,,---,0.06,VWS V12.08,2013-03-14 20:19:00,
2013-03-14 16:24:00,42.0,17.9,29.84,West,273,9.8,29.1,38,8.20,,---,0.00,VWS V12.08,2013-03-14 20:24:00,
2013-03-14 16:29:00,42.0,17.8,29.84,West,278,14.2,29.1,37,8.20,,---,0.00,VWS V12.08,2013-03-14 20:29:00,
2013-03-14 16:34:00,42.0,17.5,29.84,West,274,19.1,29.1,37,8.20,,---,0.00,VWS V12.08,2013-03-14 20:34:00,
2013-03-14 16:39:00,41.8,17.6,29.84,West,274,15.0,29.1,37,8.20,,---,0.00,VWS V12.08,2013-03-14 20:39:00,
2013-03-14 16:44:00,41.8,17.3,29.84,WNW,283,10.1,29.1,37,8.20,,---,0.00,VWS V12.08,2013-03-14 20:44:00,
2013-03-14 16:49:00,41.9,17.4,29.84,WSW,239,10.5,29.1,37,8.20,,---,0.00,VWS V12.08,2013-03-14 20:49:00,
2013-03-14 16:54:00,41.7,16.7,29.84,West,277,22.4,29.1,36,8.20,,---,0.00,VWS V12.08,2013-03-14 20:54:00,
2013-03-14 16:59:00,41.6,16.7,29.84,WNW,294,15.7,0.0,36,8.20,,---,0.00,VWS V12.08,2013-03-14 20:59:00,
2013-03-14 17:04:00,41.8,16.8,29.84,West,267,8.2,0.0,36,8.20,,---,0.00,VWS V12.08,2013-03-14 21:04:00,
2013-03-14 17:09:00,41.7,16.5,29.84,West,266,21.1,29.1,36,8.20,,---,0.00,VWS V12.08,2013-03-14 21:09:00,
2013-03-14 17:14:00,41.7,16.9,29.84,WSW,257,7.2,29.1,36,8.20,,---,0.00,VWS V12.08,2013-03-14 21:14:00,
2013-03-14 17:19:00,46.6,38.0,29.71,West,276,17.2,18.0,72,0.00,,---,0.00,VWS V12.08,2013-03-14 21:19:00,
2013-03-14 17:24:00,46.6,38.0,29.71,West,276,17.2,18.0,72,0.00,,---,0.00,VWS V12.08,2013-03-14 21:24:00,
2013-03-14 17:29:00,43.6,43.6,29.87,ENE,66,4.3,11.7,100,0.65,,---,0.65,VWS V12.08,2013-03-14 21:29:00,
2013-03-14 17:34:00,33.7,32.0,30.29,NE,38,0.0,0.0,93,0.00,,---,0.00,VWS V12.08,2013-03-14 21:34:00,
2013-03-14 17:39:00,39.3,39.3,29.46,North,1,10.8,31.8,100,1.39,,---,1.33,VWS V12.08,2013-03-14 21:39:00,
2013-03-14 17:44:00,41.2,16.4,29.84,NW,308,15.3,29.1,36,8.20,,---,0.00,VWS V12.08,2013-03-14 21:44:00,
2013-03-14 17:49:00,43.6,43.6,29.87,ENE,66,4.3,11.7,100,0.65,,---,0.65,VWS V12.08,2013-03-14 21:49:00,
2013-03-14 17:54:00,41.1,16.3,29.84,WNW,302,18.2,29.1,36,8.20,,---,0.00,VWS V12.08,2013-03-14 21:54:00,
2013-03-14 17:59:00,41.0,15.8,29.84,WNW,290,17.6,29.1,36,8.20,,---,0.00,VWS V12.08,2013-03-14 21:59:00,
2013-03-14 18:04:00,33.7,32.0,30.29,NE,38,0.0,0.0,93,0.00,,---,0.00,VWS V12.08,2013-03-14 22:04:00,
2013-03-14 18:09:00,40.8,16.0,29.84,West,271,11.6,0.0,36,8.20,,---,0.00,VWS V12.08,2013-03-14 22:09:00,
2013-03-14 18:14:00,40.8,16.1,29.85,West,267,11.8,0.0,36,8.20,,---,0.00,VWS V12.08,2013-03-14 22:14:00,
2013-03-14 18:19:00,40.6,16.2,29.85,West,281,11.6,29.1,37,8.20,,---,0.00,VWS V12.08,2013-03-14 22:19:00,
2013-03-14 18:24:00,32.3,30.8,30.23,NNE,13,4.3,6.3,94,0.06,,---,0.06,VWS V12.08,2013-03-14 22:24:00,
2013-03-14 18:29:00,40.5,15.9,29.85,WNW,297,13.5,29.1,36,8.20,,---,0.00,VWS V12.08,2013-03-14 22:29:00,
2013-03-14 18:34:00,40.4,15.6,29.85,West,271,14.4,0.0,36,8.20,,---,0.00,VWS V12.08,2013-03-14 22:34:00,
2013-03-14 18:39:00,40.3,16.0,29.85,WNW,290,5.9,0.0,37,8.20,,---,0.00,VWS V12.08,2013-03-14 22:39:00,
2013-03-14 18:44:00,40.3,15.9,29.86,WNW,298,8.9,29.1,37,8.20,,---,0.00,VWS V12.08,2013-03-14 22:44:00,
2013-03-14 18:49:00,48.8,48.8,29.73,East,80,10.4,19.7,100,0.09,,---,0.09,VWS V12.08,2013-03-14 22:49:00,
2013-03-14 18:53:00,40.3,16.3,29.86,WNW,284,11.7,29.1,37,8.20,,---,0.00,VWS V12.08,2013-03-14 22:53:00,
2013-03-14 18:59:00,40.1,16.1,29.86,West,270,9.9,29.1,37,8.20,,---,0.00,VWS V12.08,2013-03-14 22:59:00,
2013-03-14 19:04:00,39.9,15.8,29.87,WSW,238,16.5,29.1,37,8.20,,---,0.00,VWS V12.08,2013-03-14 23:04:00,
2013-03-14 19:09:00,37.9,32.4,30.20,SSW,208,0.0,15.5,80,0.00,,---,0.00,VWS V12.08,2013-03-14 23:09:00,
2013-03-14 19:14:00,49.1,49.0,29.71,East,97,12.7,19.7,100,0.10,,---,0.10,VWS V12.08,2013-03-14 23:14:00,
2013-03-14 19:18:00,39.6,16.1,29.87,WNW,302,7.0,29.1,38,8.20,,---,0.00,VWS V12.08,2013-03-14 23:18:00,
2013-03-14 19:23:00,39.3,16.0,29.87,NW,318,9.9,29.1,38,8.20,,---,0.00,VWS V12.08,2013-03-14 23:23:00,
2013-03-14 19:28:00,39.4,15.7,29.87,WNW,285,8.5,29.1,38,8.20,,---,0.00,VWS V12.08,2013-03-14 23:28:00,
2013-03-14 19:33:00,39.3,16.1,29.88,West,277,8.3,29.1,38,8.20,,---,0.00,VWS V12.08,2013-03-14 23:33:00,
2013-03-14 19:38:00,39.3,16.1,29.88,WNW,288,11.6,29.1,38,8.20,,---,0.00,VWS V12.08,2013-03-14 23:38:00,
2013-03-14 19:43:00,39.0,15.9,29.88,WNW,291,5.8,29.1,39,8.20,,---,0.00,VWS V12.08,2013-03-14 23:43:00,
2013-03-14 19:48:00,38.6,15.6,29.89,WNW,295,7.0,0.0,39,8.20,,---,0.00,VWS V12.08,2013-03-14 23:48:00,
2013-03-14 19:53:00,52.8,52.8,29.92,SSE,165,5.8,8.0,100,0.13,,---,0.13,VWS V12.08,2013-03-14 23:53:00,
2013-03-14 19:58:00,33.0,31.3,30.22,NNE,30,0.0,20.3,94,0.18,,---,0.06,VWS V12.08,2013-03-14 23:58:00,
2013-03-14 20:03:00,50.1,50.1,29.98,SSW,193,0.0,11.4,100,0.53,,---,0.21,VWS V12.08,2013-03-15 00:03:00,
2013-03-14 20:08:00,38.5,15.6,29.89,WNW,290,14.0,29.1,39,8.20,,---,0.00,VWS V12.08,2013-03-15 00:08:00,
2013-03-14 20:13:00,38.4,15.2,29.89,WSW,239,13.7,29.1,38,8.20,,---,0.00,VWS V12.08,2013-03-15 00:13:00,
2013-03-14 20:18:00,38.0,14.8,29.89,West,281,10.9,29.1,38,8.20,,---,0.00,VWS V12.08,2013-03-15 00:18:00,
2013-03-14 20:23:00,38.1,14.9,29.89,WSW,253,14.1,29.1,38,8.20,,---,0.00,VWS V12.08,2013-03-15 00:23:00,
2013-03-14 20:28:00,38.0,14.8,29.90,WNW,292,15.0,0.0,38,8.20,,---,0.00,VWS V12.08,2013-03-15 00:28:00,
2013-03-14 20:33:00,37.8,14.4,29.90,WSW,246,13.2,29.1,38,8.20,,---,0.00,VWS V12.08,2013-03-15 00:33:00,
2013-03-14 20:38:00,37.8,14.7,29.90,West,267,11.6,29.1,38,8.20,,---,0.00,VWS V12.08,2013-03-15 00:38:00,
2013-03-14 20:43:00,37.9,14.8,29.90,West,270,14.7,29.1,38,8.20,,---,0.00,VWS V12.08,2013-03-15 00:43:00,
2013-03-14 20:48:00,37.4,14.4,29.90,NW,304,9.7,29.1,38,8.20,,---,0.00,VWS V12.08,2013-03-15 00:48:00,
2013-03-14 20:53:00,52.4,52.4,29.93,SSE,162,4.3,11.6,100,0.13,,---,0.13,VWS V12.08,2013-03-15 00:53:00,
2013-03-14 20:58:00,50.0,50.0,29.98,South,172,0.0,7.1,100,0.26,,---,0.21,VWS V12.08,2013-03-15 00:58:00,
2013-03-14 21:03:00,37.1,13.8,29.90,WNW,283,12.8,29.1,38,8.20,,---,0.00,VWS V12.08,2013-03-15 01:03:00,
2013-03-14 21:08:00,37.1,14.3,29.90,WNW,300,12.8,0.0,39,8.20,,---,0.00,VWS V12.08,2013-03-15 01:08:00,
2013-03-14 21:13:00,37.2,14.2,29.91,West,260,15.0,0.0,38,8.20,,---,0.00,VWS V12.08,2013-03-15 01:13:00,
2013-03-14 21:18:00,37.0,14.3,29.91,SW,235,6.3,29.1,39,8.20,,---,0.00,VWS V12.08,2013-03-15 01:18:00,
2013-03-14 21:23:00,43.2,39.8,30.11,North,359,5.2,6.1,88,0.00,,---,0.00,VWS V12.08,2013-03-15 01:23:00,
2013-03-14 21:28:00,36.6,14.2,29.91,WNW,291,14.8,29.1,39,8.20,,---,0.00,VWS V12.08,2013-03-15 01:28:00,
2013-03-14 21:33:00,38.5,31.1,29.91,WNW,298,10.4,25.0,74,0.62,,---,0.40,VWS V12.08,2013-03-15 01:33:00,
2013-03-14 21:38:00,36.3,14.1,29.91,WNW,298,12.2,0.0,40,8.20,,---,0.00,VWS V12.08,2013-03-15 01:38:00,
2013-03-14 21:43:00,32.5,32.5,29.58,WNW,300,9.3,17.1,100,0.00,,---,0.00,VWS V12.08,2013-03-15 01:43:00,
2013-03-14 21:48:00,36.0,14.3,29.91,WNW,291,6.2,29.1,40,8.20,,---,0.00,VWS V12.08,2013-03-15 01:48:00,
2013-03-14 21:53:00,35.2,29.5,30.25,SSW,194,6.2,21.6,79,0.59,,---,0.03,VWS V12.08,2013-03-15 01:53:00,
2013-03-14 21:58:00,54.0,54.0,29.58,WNW,285,19.9,23.6,100,0.03,,---,0.03,VWS V12.08,2013-03-15 01:58:00,
2013-03-14 22:03:00,36.0,15.1,29.91,WSW,255,8.1,29.1,42,8.20,,---,0.00,VWS V12.08,2013-03-15 02:03:00,
2013-03-14 22:08:00,35.3,14.6,29.92,West,276,7.7,29.1,42,8.20,,---,0.00,VWS V12.08,2013-03-15 02:08:00,
2013-03-14 22:13:00,38.9,31.6,30.29,WSW,252,5.8,18.4,75,0.04,,---,0.00,VWS V12.08,2013-03-15 02:13:00,
2013-03-14 22:18:00,57.1,57.1,29.55,West,264,0.0,9.9,100,0.30,,---,0.03,VWS V12.08,2013-03-15 02:18:00,
2013-03-14 22:23:00,35.3,14.8,29.92,NW,308,7.0,0.0,42,8.20,,---,0.00,VWS V12.08,2013-03-15 02:23:00,
2013-03-14 22:28:00,35.1,14.8,29.92,West,276,9.7,0.0,43,8.20,,---,0.00,VWS V12.08,2013-03-15 02:28:00,
2013-03-14 22:33:00,35.0,14.7,29.92,WNW,297,9.4,0.0,43,8.20,,---,0.00,VWS V12.08,2013-03-15 02:33:00,
2013-03-14 22:38:00,41.2,36.4,30.18,NNW,330,0.0,21.1,83,0.08,,---,0.05,VWS V12.08,2013-03-15 02:38:00,
2013-03-14 22:43:00,41.4,39.5,30.53,North,10,5.1,13.7,93,0.00,,---,0.00,VWS V12.08,2013-03-15 02:43:00,
2013-03-14 22:48:00,29.3,28.0,30.01,WNW,291,0.0,0.0,95,0.00,,---,0.00,VWS V12.08,2013-03-15 02:48:00,
2013-03-14 22:53:00,34.9,15.0,29.93,NW,307,7.5,0.0,44,8.20,,---,0.00,VWS V12.08,2013-03-15 02:53:00,
2013-03-14 22:58:00,34.6,14.8,29.93,West,260,4.5,29.1,44,8.20,,---,0.00,VWS V12.08,2013-03-15 02:58:00,
2013-03-14 23:03:00,34.7,14.9,29.93,West,266,10.4,29.1,44,8.20,,---,0.00,VWS V12.08,2013-03-15 03:03:00,
2013-03-14 23:08:00,34.8,15.0,29.94,WNW,285,11.6,29.1,44,8.20,,---,0.00,VWS V12.08,2013-03-15 03:08:00,
2013-03-14 23:13:00,36.3,26.9,29.93,WNW,297,4.7,21.4,68,0.00,,---,0.00,VWS V12.08,2013-03-15 03:13:00,
2013-03-14 23:18:00,34.7,15.0,29.94,NW,304,9.7,29.1,44,8.20,,---,0.00,VWS V12.08,2013-03-15 03:18:00,
2013-03-14 23:23:00,34.7,15.1,29.94,West,262,11.1,0.0,44,8.20,,---,0.00,VWS V12.08,2013-03-15 03:23:00,
2013-03-14 23:28:00,34.3,14.8,29.94,West,267,10.9,29.1,44,8.20,,---,0.00,VWS V12.08,2013-03-15 03:28:00,
2013-03-14 23:33:00,34.6,15.2,29.94,NW,312,7.2,29.1,44,8.20,,---,0.00,VWS V12.08,2013-03-15 03:33:00,
2013-03-14 23:38:00,34.4,15.2,29.95,WNW,294,6.2,29.1,45,8.20,,---,0.00,VWS V12.08,2013-03-15 03:38:00,
2013-03-14 23:43:00,35.0,35.0,29.90,NNW,332,0.0,12.4,100,0.10,,---,0.10,VWS V12.08,2013-03-15 03:43:00,
2013-03-14 23:48:00,36.0,26.8,29.93,West,263,2.1,12.0,69,0.00,,---,0.00,VWS V12.08,2013-03-15 03:48:00,
2013-03-14 23:53:00,34.2,15.4,29.95,WNW,302,8.1,29.1,46,8.20,,---,0.00,VWS V12.08,2013-03-15 03:53:00,
2013-03-14 23:58:00,45.2,45.2,29.96,NNW,339,0.0,8.5,100,0.27,,---,0.27,VWS V12.08,2013-03-15 03:58:00,